createdAt,value
2022-12-18T00:00:58.184Z,26.20
2022-12-18T00:03:47.748Z,24.50
2022-12-18T00:06:19.914Z,27.50
2022-12-18T00:08:52.080Z,27.80
2022-12-18T00:11:24.778Z,28.30
2022-12-18T00:13:58.568Z,26.40
2022-12-18T00:16:33.899Z,28.00
2022-12-18T00:19:05.833Z,26.00
2022-12-18T00:21:37.439Z,23.70
2022-12-18T00:24:09.711Z,23.10
2022-12-18T00:26:41.677Z,23.90
2022-12-18T00:29:16.201Z,23.60
2022-12-18T00:31:48.150Z,23.70
2022-12-18T00:34:19.141Z,23.50
2022-12-18T00:36:51.235Z,27.60
2022-12-18T00:39:22.329Z,25.20
2022-12-18T00:42:10.995Z,21.00
2022-12-18T00:44:42.117Z,21.90
2022-12-18T00:47:13.258Z,19.90
2022-12-18T00:49:44.398Z,20.00
2022-12-18T00:52:15.418Z,19.40
2022-12-18T00:54:46.596Z,18.60
2022-12-18T00:57:17.822Z,18.30
2022-12-18T00:59:51.388Z,20.00
2022-12-18T01:02:22.899Z,23.00
2022-12-18T01:04:54.253Z,22.70
2022-12-18T01:07:25.298Z,19.90
2022-12-18T01:09:56.294Z,18.50
2022-12-18T01:12:27.438Z,18.40
2022-12-18T01:14:58.365Z,17.30
2022-12-18T01:17:29.433Z,18.60
2022-12-18T01:20:00.338Z,19.00
2022-12-18T01:22:31.477Z,20.70
2022-12-18T01:25:02.738Z,18.80
2022-12-18T01:27:35.024Z,19.60
2022-12-18T01:30:07.063Z,19.70
2022-12-18T01:32:38.133Z,21.70
2022-12-18T01:35:10.489Z,21.30
2022-12-18T01:37:41.580Z,19.30
2022-12-18T01:40:13.897Z,19.50
2022-12-18T01:42:44.893Z,19.40
2022-12-18T01:45:30.651Z,19.50
2022-12-18T01:48:03.947Z,17.40
2022-12-18T01:50:38.481Z,17.80
2022-12-18T01:53:13.547Z,15.20
2022-12-18T01:55:48.847Z,19.40
2022-12-18T01:58:21.653Z,20.70
2022-12-18T02:00:52.698Z,18.70
2022-12-18T02:03:24.020Z,22.10
2022-12-18T02:06:08.146Z,22.10
2022-12-18T02:08:46.062Z,20.00
2022-12-18T02:11:24.674Z,20.00
2022-12-18T02:14:06.142Z,19.60
2022-12-18T02:16:47.304Z,18.60
2022-12-18T02:19:57.487Z,19.70
2022-12-18T02:22:46.973Z,15.90
2022-12-18T02:25:31.200Z,15.80
2022-12-18T02:30:35.968Z,20.60
2022-12-18T02:33:09.926Z,18.70
2022-12-18T02:35:43.568Z,19.00
2022-12-18T02:38:16.442Z,19.10
2022-12-18T02:40:48.467Z,20.50
2022-12-18T02:43:19.772Z,21.20
2022-12-18T02:45:59.089Z,21.00
2022-12-18T02:48:35.291Z,19.80
2022-12-18T02:51:15.328Z,19.60
2022-12-18T02:53:53.578Z,16.40
2022-12-18T02:56:31.945Z,17.80
2022-12-18T02:59:07.860Z,16.80
2022-12-18T03:01:46.448Z,18.10
2022-12-18T03:04:23.569Z,18.20
2022-12-18T03:06:58.786Z,20.20
2022-12-18T03:09:35.115Z,19.30
2022-12-18T03:12:26.232Z,19.90
2022-12-18T03:15:03.104Z,19.30
2022-12-18T03:17:35.681Z,20.20
2022-12-18T03:20:12.651Z,18.40
2022-12-18T03:22:46.757Z,19.70
2022-12-18T03:25:19.310Z,19.40
2022-12-18T03:27:52.025Z,21.00
2022-12-18T03:30:23.686Z,18.10
2022-12-18T03:33:02.500Z,19.60
2022-12-18T03:35:37.175Z,20.30
2022-12-18T03:38:08.470Z,18.80
2022-12-18T03:40:49.735Z,18.50
2022-12-18T03:43:29.358Z,19.20
2022-12-18T03:46:09.539Z,18.00
2022-12-18T03:48:45.700Z,17.50
2022-12-18T03:51:25.718Z,18.50
2022-12-18T03:54:00.667Z,16.60
2022-12-18T03:56:34.673Z,16.40
2022-12-18T03:59:06.842Z,17.60
2022-12-18T04:01:42.349Z,16.90
2022-12-18T04:04:16.610Z,18.00
2022-12-18T04:06:49.627Z,17.30
2022-12-18T04:09:22.887Z,19.20
2022-12-18T04:11:55.143Z,18.30
2022-12-18T04:14:26.189Z,17.60
2022-12-18T04:16:57.141Z,17.50
2022-12-18T04:19:28.385Z,17.60
2022-12-18T04:21:59.847Z,13.40
2022-12-18T04:24:31.004Z,17.20
2022-12-18T04:27:02.228Z,16.20
2022-12-18T04:29:33.415Z,18.40
2022-12-18T04:32:04.379Z,15.70
2022-12-18T04:34:35.554Z,17.20
2022-12-18T04:37:06.407Z,17.70
2022-12-18T04:39:38.051Z,15.90
2022-12-18T04:42:09.071Z,16.10
2022-12-18T04:44:39.918Z,18.30
2022-12-18T04:47:11.045Z,18.10
2022-12-18T04:49:42.002Z,15.00
2022-12-18T04:52:12.892Z,16.60
2022-12-18T04:54:44.066Z,17.70
2022-12-18T04:57:15.100Z,15.80
2022-12-18T04:59:46.174Z,17.70
2022-12-18T05:02:17.308Z,18.70
2022-12-18T05:04:48.741Z,16.40
2022-12-18T05:07:19.711Z,17.20
2022-12-18T05:09:50.696Z,15.20
2022-12-18T05:12:21.780Z,15.60
2022-12-18T05:14:53.022Z,14.80
2022-12-18T05:17:24.183Z,15.40
2022-12-18T05:19:55.106Z,15.40
2022-12-18T05:22:26.946Z,16.50
2022-12-18T05:27:27.329Z,16.70
2022-12-18T05:29:58.395Z,15.80
2022-12-18T05:32:29.523Z,14.10
2022-12-18T05:35:00.676Z,14.90
2022-12-18T05:37:32.153Z,13.80
2022-12-18T05:40:03.215Z,14.30
2022-12-18T05:42:34.408Z,12.90
2022-12-18T05:45:06.044Z,13.50
2022-12-18T05:47:37.372Z,18.10
2022-12-18T05:50:10.371Z,12.00
2022-12-18T05:52:41.296Z,13.60
2022-12-18T05:55:12.681Z,8.50
2022-12-18T05:57:43.739Z,7.40
2022-12-18T06:00:17.391Z,9.60
2022-12-18T06:02:51.636Z,9.70
2022-12-18T06:05:23.098Z,11.60
2022-12-18T06:07:54.242Z,9.60
2022-12-18T06:10:25.330Z,15.10
2022-12-18T06:12:56.120Z,25.40
2022-12-18T06:15:27.000Z,10.80
2022-12-18T06:17:58.138Z,13.10
2022-12-18T06:20:33.233Z,23.60
2022-12-18T06:23:04.924Z,12.00
2022-12-18T06:25:35.899Z,8.00
2022-12-18T06:28:07.954Z,10.20
2022-12-18T06:30:38.923Z,12.40
2022-12-18T06:33:10.112Z,9.60
2022-12-18T06:35:41.280Z,12.00
2022-12-18T06:38:12.343Z,9.60
2022-12-18T06:40:43.170Z,13.60
2022-12-18T06:43:14.240Z,6.60
2022-12-18T06:45:45.320Z,7.00
2022-12-18T06:48:16.747Z,7.10
2022-12-18T06:50:47.867Z,13.60
2022-12-18T06:53:18.881Z,8.50
2022-12-18T06:55:49.919Z,7.40
2022-12-18T06:58:21.027Z,10.40
2022-12-18T07:00:52.985Z,8.00
2022-12-18T07:05:53.154Z,7.70
2022-12-18T07:08:24.335Z,6.10
2022-12-18T07:10:56.467Z,4.80
2022-12-18T07:13:27.972Z,9.20
2022-12-18T07:16:06.107Z,8.40
2022-12-18T07:18:40.034Z,5.60
2022-12-18T07:21:14.195Z,7.40
2022-12-18T07:23:45.858Z,4.10
2022-12-18T07:26:18.949Z,5.00
2022-12-18T07:28:50.935Z,8.40
2022-12-18T07:31:23.869Z,7.40
2022-12-18T07:33:55.262Z,8.30
2022-12-18T07:36:26.953Z,5.70
2022-12-18T07:41:28.167Z,5.80
2022-12-18T07:43:59.148Z,3.90
2022-12-18T07:46:29.914Z,4.90
2022-12-18T07:49:01.006Z,6.70
2022-12-18T07:51:32.096Z,9.20
2022-12-18T07:54:04.572Z,6.00
2022-12-18T07:56:35.281Z,9.80
2022-12-18T07:59:09.196Z,7.90
2022-12-18T08:01:40.211Z,7.60
2022-12-18T08:04:11.455Z,5.90
2022-12-18T08:06:46.241Z,9.20
2022-12-18T08:09:19.406Z,5.90
2022-12-18T08:11:50.291Z,8.40
2022-12-18T08:14:21.329Z,7.60
2022-12-18T08:16:52.514Z,6.10
2022-12-18T08:19:23.488Z,8.20
2022-12-18T08:21:57.180Z,6.90
2022-12-18T08:24:28.132Z,7.50
2022-12-18T08:27:27.904Z,7.70
2022-12-18T08:29:50.461Z,7.30
2022-12-18T08:32:21.503Z,9.30
2022-12-18T08:34:52.438Z,7.30
2022-12-18T08:37:23.773Z,8.30
2022-12-18T08:39:54.736Z,10.10
2022-12-18T08:42:43.435Z,7.40
2022-12-18T08:45:14.608Z,11.20
2022-12-18T08:47:45.484Z,11.10
2022-12-18T08:50:18.541Z,7.40
2022-12-18T08:52:49.578Z,5.20
2022-12-18T08:55:20.802Z,4.40
2022-12-18T08:57:53.342Z,6.50
2022-12-18T09:00:25.005Z,7.50
2022-12-18T09:02:57.126Z,9.90
2022-12-18T09:05:28.238Z,7.40
2022-12-18T09:07:59.202Z,9.00
2022-12-18T09:10:30.353Z,10.10
2022-12-18T09:13:01.620Z,9.40
2022-12-18T09:15:32.711Z,12.10
2022-12-18T09:18:03.732Z,9.10
2022-12-18T09:20:34.731Z,7.30
2022-12-18T09:23:05.618Z,8.10
2022-12-18T09:25:37.893Z,10.10
2022-12-18T09:28:15.616Z,9.80
2022-12-18T09:30:49.795Z,4.80
2022-12-18T09:33:21.345Z,5.30
2022-12-18T09:35:52.424Z,8.50
2022-12-18T09:38:24.288Z,7.40
2022-12-18T09:40:59.986Z,8.00
2022-12-18T09:43:36.356Z,7.80
2022-12-18T09:46:12.872Z,10.40
2022-12-18T09:48:48.425Z,7.90
2022-12-18T09:51:23.150Z,8.50
2022-12-18T09:53:59.582Z,7.70
2022-12-18T09:56:36.648Z,7.80
2022-12-18T09:59:08.986Z,9.60
2022-12-18T10:01:44.484Z,8.60
2022-12-18T10:04:15.695Z,5.70
2022-12-18T10:06:54.298Z,7.50
2022-12-18T10:09:36.020Z,7.90
2022-12-18T10:12:15.971Z,10.50
2022-12-18T10:14:54.140Z,9.10
2022-12-18T10:17:37.707Z,7.40
2022-12-18T10:20:18.039Z,8.10
2022-12-18T10:22:59.136Z,8.80
2022-12-18T10:25:36.773Z,8.20
2022-12-18T10:28:16.903Z,9.40
2022-12-18T10:30:47.824Z,28.30
2022-12-18T10:33:21.386Z,8.70
2022-12-18T10:35:54.647Z,9.60
2022-12-18T10:38:28.720Z,7.50
2022-12-18T10:41:01.353Z,9.10
2022-12-18T10:43:34.390Z,7.70
2022-12-18T10:46:18.737Z,7.50
2022-12-18T10:48:57.194Z,8.50
2022-12-18T10:51:31.934Z,8.90
2022-12-18T10:54:06.411Z,7.70
2022-12-18T10:56:39.082Z,7.80
2022-12-18T10:59:12.724Z,8.10
2022-12-18T11:04:11.717Z,7.90
2022-12-18T11:06:58.521Z,9.30
2022-12-18T11:09:32.814Z,8.40
2022-12-18T11:12:07.200Z,9.40
2022-12-18T11:14:49.563Z,5.40
2022-12-18T11:17:30.285Z,7.90
2022-12-18T11:20:03.631Z,6.20
2022-12-18T11:22:37.215Z,3.80
2022-12-18T11:25:32.378Z,6.30
2022-12-18T11:28:05.487Z,8.30
2022-12-18T11:30:37.927Z,7.40
2022-12-18T11:33:11.989Z,8.40
2022-12-18T11:35:51.736Z,8.00
2022-12-18T11:38:26.530Z,8.10
2022-12-18T11:41:02.662Z,9.40
2022-12-18T11:43:40.255Z,9.50
2022-12-18T11:46:19.823Z,7.70
2022-12-18T11:48:58.322Z,7.30
2022-12-18T11:51:39.561Z,5.20
2022-12-18T11:54:16.871Z,7.30
2022-12-18T11:56:51.664Z,5.50
2022-12-18T11:59:34.408Z,5.90
2022-12-18T12:02:19.746Z,6.00
2022-12-18T12:05:15.084Z,3.80
2022-12-18T12:07:56.360Z,9.00
2022-12-18T12:10:43.407Z,12.50
2022-12-18T12:13:31.522Z,10.00
2022-12-18T12:16:12.118Z,6.80
2022-12-18T12:18:58.770Z,5.10
2022-12-18T12:21:39.483Z,10.90
2022-12-18T12:24:21.832Z,9.20
2022-12-18T12:27:00.756Z,9.00
2022-12-18T12:29:45.062Z,5.30
2022-12-18T12:32:32.347Z,6.90
2022-12-18T12:35:17.801Z,9.40
2022-12-18T12:37:54.954Z,10.40
2022-12-18T12:43:29.409Z,7.10
2022-12-18T12:46:05.378Z,7.20
2022-12-18T12:48:44.618Z,5.90
2022-12-18T12:53:50.179Z,8.10
2022-12-18T12:56:24.441Z,6.80
2022-12-18T12:59:04.291Z,12.50
2022-12-18T13:01:43.617Z,10.20
2022-12-18T13:04:26.017Z,7.20
2022-12-18T13:07:05.894Z,4.70
2022-12-18T13:09:58.274Z,8.50
2022-12-18T13:12:50.029Z,12.70
2022-12-18T13:15:26.218Z,6.60
2022-12-18T13:18:21.493Z,7.10
2022-12-18T13:21:04.042Z,8.10
2022-12-18T13:23:39.749Z,13.40
2022-12-18T13:26:43.217Z,9.50
2022-12-18T13:29:33.899Z,7.40
2022-12-18T13:32:05.384Z,11.10
2022-12-18T13:37:45.710Z,7.00
2022-12-18T13:40:56.087Z,8.00
2022-12-18T13:43:35.640Z,7.60
2022-12-18T13:46:19.957Z,18.30
2022-12-18T13:48:57.331Z,14.20
2022-12-18T13:51:29.794Z,8.40
2022-12-18T13:54:03.944Z,10.50
2022-12-18T13:56:35.972Z,6.70
2022-12-18T13:59:22.284Z,8.60
2022-12-18T14:01:58.327Z,7.90
2022-12-18T14:04:33.690Z,8.90
2022-12-18T14:07:09.630Z,5.50
2022-12-18T14:09:44.642Z,8.10
2022-12-18T14:12:40.349Z,6.90
2022-12-18T14:15:26.389Z,4.30
2022-12-18T14:18:00.172Z,5.70
2022-12-18T14:20:34.007Z,4.70
2022-12-18T14:23:05.877Z,9.00
2022-12-18T14:28:17.715Z,4.50
2022-12-18T14:30:49.318Z,6.70
2022-12-18T14:33:21.957Z,7.30
2022-12-18T14:36:01.735Z,6.00
2022-12-18T14:38:34.759Z,7.10
2022-12-18T14:41:07.883Z,8.20
2022-12-18T14:43:40.874Z,5.10
2022-12-18T14:46:30.921Z,5.70
2022-12-18T14:49:03.823Z,7.80
2022-12-18T14:51:36.599Z,7.60
2022-12-18T14:54:16.548Z,7.50
2022-12-18T14:56:50.793Z,7.00
2022-12-18T14:59:25.241Z,7.60
2022-12-18T15:02:04.232Z,6.30
2022-12-18T15:04:40.327Z,8.40
2022-12-18T15:07:17.242Z,8.20
2022-12-18T15:10:05.529Z,9.00
2022-12-18T15:12:41.062Z,7.80
2022-12-18T15:15:43.430Z,7.10
2022-12-18T15:18:20.633Z,8.60
2022-12-18T15:20:54.206Z,5.00
2022-12-18T15:23:27.394Z,7.30
2022-12-18T15:26:03.415Z,6.80
2022-12-18T15:28:39.699Z,7.60
2022-12-18T15:31:26.779Z,8.70
2022-12-18T15:34:16.396Z,7.70
2022-12-18T15:36:47.292Z,8.50
2022-12-18T15:39:18.563Z,6.50
2022-12-18T15:42:07.598Z,7.90
2022-12-18T15:44:38.917Z,8.30
2022-12-18T15:47:14.515Z,9.80
2022-12-18T15:49:45.628Z,9.30
2022-12-18T15:52:26.976Z,7.20
2022-12-18T15:55:15.891Z,4.70
2022-12-18T15:57:47.230Z,7.50
2022-12-18T16:00:19.717Z,8.30
2022-12-18T16:02:50.763Z,6.60
2022-12-18T16:05:24.089Z,9.10
2022-12-18T16:07:55.151Z,9.10
2022-12-18T16:10:27.303Z,11.00
2022-12-18T16:12:58.497Z,6.50
2022-12-18T16:15:29.562Z,5.70
2022-12-18T16:18:00.667Z,7.10
2022-12-18T16:20:31.677Z,5.00
2022-12-18T16:23:02.855Z,6.30
2022-12-18T16:25:34.371Z,5.60
2022-12-18T16:28:05.356Z,3.00
2022-12-18T16:30:38.566Z,6.60
2022-12-18T16:33:10.737Z,8.80
2022-12-18T16:35:41.917Z,7.10
2022-12-18T16:38:13.984Z,7.90
2022-12-18T16:40:58.703Z,8.20
2022-12-18T16:43:29.823Z,8.40
2022-12-18T16:46:01.927Z,7.90
2022-12-18T16:48:32.876Z,5.10
2022-12-18T16:51:05.866Z,9.00
2022-12-18T16:53:36.987Z,6.70
2022-12-18T16:56:08.428Z,12.00
2022-12-18T16:58:39.307Z,4.30
2022-12-18T17:01:13.364Z,7.20
2022-12-18T17:03:45.065Z,10.50
2022-12-18T17:06:17.660Z,10.60
2022-12-18T17:08:50.270Z,6.70
2022-12-18T17:11:21.865Z,7.50
2022-12-18T17:13:53.059Z,9.70
2022-12-18T17:16:24.708Z,6.40
2022-12-18T17:21:26.172Z,5.10
2022-12-18T17:23:57.356Z,9.30
2022-12-18T17:26:28.587Z,11.30
2022-12-18T17:29:00.901Z,8.00
2022-12-18T17:31:33.097Z,7.00
2022-12-18T17:34:04.455Z,7.00
2022-12-18T17:36:35.516Z,8.90
2022-12-18T17:39:08.052Z,5.70
2022-12-18T17:41:39.251Z,9.20
2022-12-18T17:44:10.313Z,8.40
2022-12-18T17:46:43.826Z,11.00
2022-12-18T17:49:15.678Z,5.30
2022-12-18T17:51:46.594Z,11.00
2022-12-18T17:54:17.563Z,10.90
2022-12-18T17:56:49.358Z,10.70
2022-12-18T17:59:20.989Z,6.40
2022-12-18T18:01:52.078Z,8.10
2022-12-18T18:04:23.258Z,7.30
2022-12-18T18:06:54.272Z,9.80
2022-12-18T18:09:25.437Z,9.10
2022-12-18T18:12:14.684Z,9.70
2022-12-18T18:14:45.753Z,7.90
2022-12-18T18:17:16.807Z,8.20
2022-12-18T18:19:49.694Z,10.10
2022-12-18T18:22:21.223Z,10.40
2022-12-18T18:24:55.372Z,10.80
2022-12-18T18:27:26.654Z,11.10
2022-12-18T18:29:58.199Z,7.20
2022-12-18T18:32:29.373Z,9.10
2022-12-18T18:35:00.685Z,12.70
2022-12-18T18:37:31.656Z,14.10
2022-12-18T18:40:02.971Z,12.40
2022-12-18T18:42:34.117Z,12.70
2022-12-18T18:45:05.463Z,12.40
2022-12-18T18:47:36.649Z,10.00
2022-12-18T18:50:09.363Z,12.00
2022-12-18T18:52:40.593Z,11.60
2022-12-18T18:55:25.332Z,11.10
2022-12-18T18:57:57.037Z,11.40
2022-12-18T19:00:28.448Z,10.80
2022-12-18T19:03:00.911Z,10.70
2022-12-18T19:05:33.921Z,11.10
2022-12-18T19:08:05.370Z,11.60
2022-12-18T19:10:40.885Z,11.30
2022-12-18T19:13:22.338Z,10.50
2022-12-18T19:15:55.565Z,10.80
2022-12-18T19:18:27.245Z,10.70
2022-12-18T19:21:00.111Z,10.40
2022-12-18T19:23:31.887Z,10.90
2022-12-18T19:29:03.551Z,32.60
2022-12-18T19:31:36.487Z,11.80
2022-12-18T19:34:09.725Z,9.10
2022-12-18T19:36:42.190Z,9.70
2022-12-18T19:39:14.947Z,17.30
2022-12-18T19:41:46.526Z,12.30
2022-12-18T19:44:18.780Z,11.60
2022-12-18T19:46:52.649Z,10.20
2022-12-18T19:49:23.808Z,11.30
2022-12-18T19:51:55.399Z,13.80
2022-12-18T19:54:26.365Z,10.60
2022-12-18T19:56:57.693Z,11.50
2022-12-18T19:59:28.689Z,10.40
2022-12-18T20:01:59.970Z,11.40
2022-12-18T20:04:32.004Z,12.90
2022-12-18T20:09:33.290Z,10.40
2022-12-18T20:12:04.858Z,10.30
2022-12-18T20:14:35.874Z,8.90
2022-12-18T20:17:06.921Z,10.40
2022-12-18T20:19:38.221Z,9.80
2022-12-18T20:22:09.624Z,11.20
2022-12-18T20:24:40.945Z,11.40
2022-12-18T20:27:16.152Z,10.90
2022-12-18T20:29:49.657Z,9.40
2022-12-18T20:32:20.903Z,10.50
2022-12-18T20:34:52.186Z,15.00
2022-12-18T20:37:23.985Z,14.30
2022-12-18T20:39:56.388Z,18.30
2022-12-18T20:42:27.475Z,15.40
2022-12-18T20:44:58.434Z,13.70
2022-12-18T20:47:29.288Z,12.40
2022-12-18T20:50:00.966Z,16.20
2022-12-18T20:52:31.868Z,18.10
2022-12-18T20:55:03.038Z,18.50
2022-12-18T20:57:34.014Z,19.20
2022-12-18T21:00:07.272Z,43.00
2022-12-18T21:02:38.714Z,38.40
2022-12-18T21:05:10.834Z,27.20
2022-12-18T21:07:41.812Z,18.50
2022-12-18T21:10:13.015Z,11.80
2022-12-18T21:12:58.866Z,13.40
2022-12-18T21:15:31.074Z,12.70
2022-12-18T21:18:01.879Z,12.20
2022-12-18T21:20:32.977Z,13.30
2022-12-18T21:23:16.595Z,12.60
2022-12-18T21:25:48.353Z,14.50
2022-12-18T21:28:25.742Z,14.50
2022-12-18T21:30:57.998Z,21.90
2022-12-18T21:35:58.514Z,18.20
2022-12-18T21:38:30.432Z,24.50
2022-12-18T21:41:01.640Z,22.40
2022-12-18T21:43:50.278Z,16.40
2022-12-18T21:46:21.306Z,15.70
2022-12-18T21:48:52.424Z,15.80
2022-12-18T21:51:23.254Z,20.30
2022-12-18T21:53:54.123Z,13.40
2022-12-18T21:56:25.115Z,17.80
2022-12-18T21:58:56.833Z,19.10
2022-12-18T22:01:32.706Z,22.20
2022-12-18T22:04:08.953Z,18.80
2022-12-18T22:06:40.060Z,19.90
2022-12-18T22:09:12.507Z,22.00
2022-12-18T22:11:43.842Z,28.50
2022-12-18T22:14:15.022Z,21.80
2022-12-18T22:16:46.684Z,16.20
2022-12-18T22:19:17.865Z,15.40
2022-12-18T22:21:50.381Z,17.10
2022-12-18T22:24:22.603Z,16.50
2022-12-18T22:27:01.631Z,17.20
2022-12-18T22:29:50.985Z,20.00
2022-12-18T22:32:30.781Z,19.70
2022-12-18T22:35:08.381Z,19.90
2022-12-18T22:37:41.583Z,17.90
2022-12-18T22:40:23.881Z,17.10
2022-12-18T22:42:56.064Z,19.80
2022-12-18T22:45:27.898Z,17.80
2022-12-18T22:47:58.826Z,20.20
2022-12-18T22:50:30.200Z,20.50
2022-12-18T22:53:01.357Z,24.70
2022-12-18T22:55:32.256Z,22.40
2022-12-18T22:58:03.375Z,17.40
2022-12-18T23:00:34.702Z,19.80
2022-12-18T23:03:07.301Z,14.90
2022-12-18T23:05:38.341Z,15.90
2022-12-18T23:08:09.314Z,14.20
2022-12-18T23:10:41.245Z,13.30
2022-12-18T23:13:12.447Z,15.00
2022-12-18T23:15:45.198Z,13.40
2022-12-18T23:18:16.208Z,15.90
2022-12-18T23:20:47.251Z,21.80
2022-12-18T23:23:18.601Z,19.00
2022-12-18T23:25:49.912Z,12.10
2022-12-18T23:28:20.817Z,12.40
2022-12-18T23:30:51.987Z,13.40
2022-12-18T23:33:23.077Z,13.20
2022-12-18T23:35:58.558Z,15.80
2022-12-18T23:38:29.454Z,19.90
2022-12-18T23:41:00.875Z,22.00
2022-12-18T23:43:32.046Z,23.70
2022-12-18T23:46:03.117Z,22.80
2022-12-18T23:48:34.279Z,21.10
2022-12-18T23:51:10.198Z,27.00
2022-12-18T23:53:41.345Z,20.30
2022-12-18T23:56:13.990Z,25.60
2022-12-18T23:58:45.654Z,24.40
